Terminal Aerodrome Forecast
Issued by NWS Twin Cities, MN

Home | Current Version | Previous Version | Text Only | Print | Product List | Glossary On
Versions: 1 2 3 4 5 6 7 8 9 10 11 12 13 14 15 16 17 18 19
000
FTUS43 KMPX 281247 AAA
TAFSTC
TAF AMD
KSTC 281247Z 2813/2912 34007KT P6SM SCT022
      TEMPO 2813/2816 BKN022
     FM281700 34009KT P6SM BKN200=

USA.gov is the U.S. government's official web portal to all federal, state and local government web resources and services.